createdAt,value
2022-12-09T00:02:23.176Z,98257.13
2022-12-09T00:07:26.664Z,98250.06
2022-12-09T00:12:29.921Z,98243.53
2022-12-09T00:17:33.482Z,98235.19
2022-12-09T00:22:37.015Z,98230.63
2022-12-09T00:27:40.626Z,98243.28
2022-12-09T00:32:44.653Z,98232.38
2022-12-09T00:37:49.543Z,98223.16
2022-12-09T00:42:53.078Z,98230.97
2022-12-09T00:47:57.504Z,98222.09
2022-12-09T00:53:02.422Z,98212.59
2022-12-09T00:58:06.468Z,98199.59
2022-12-09T01:03:19.017Z,98194.09
2022-12-09T01:08:23.224Z,98204.63
2022-12-09T01:13:27.598Z,98207.53
2022-12-09T01:18:32.222Z,98203.47
2022-12-09T01:23:36.144Z,98212.13
2022-12-09T01:28:40.388Z,98202.97
2022-12-09T01:33:44.727Z,98201.59
2022-12-09T01:38:50.032Z,98193.13
2022-12-09T01:44:11.895Z,98197.94
2022-12-09T01:49:31.209Z,98196.31
2022-12-09T01:54:34.765Z,98206.25
2022-12-09T01:59:41.277Z,98193.63
2022-12-09T02:04:46.566Z,98190.69
2022-12-09T02:09:52.575Z,98198.75
2022-12-09T02:15:19.683Z,98204.59
2022-12-09T02:20:39.302Z,98188.34
2022-12-09T02:25:55.649Z,98198.63
2022-12-09T02:31:18.371Z,98207.53
2022-12-09T02:36:29.045Z,98213.97
2022-12-09T02:41:36.179Z,98212.34
2022-12-09T02:46:42.756Z,98212.56
2022-12-09T02:51:50.509Z,98212.78
2022-12-09T02:56:58.534Z,98218.41
2022-12-09T03:02:11.235Z,98217.00
2022-12-09T03:07:17.667Z,98211.84
2022-12-09T03:12:22.693Z,98215.59
2022-12-09T03:17:34.064Z,98210.19
2022-12-09T03:22:41.385Z,98210.44
2022-12-09T03:27:50.540Z,98213.13
2022-12-09T03:32:56.084Z,98207.94
2022-12-09T03:38:02.769Z,98209.59
2022-12-09T03:43:13.342Z,98207.59
2022-12-09T03:48:17.850Z,98197.06
2022-12-09T03:53:50.943Z,98204.31
2022-12-09T03:58:58.439Z,98200.44
2022-12-09T04:04:02.468Z,98197.97
2022-12-09T04:09:06.856Z,98211.91
2022-12-09T04:14:15.582Z,98209.66
2022-12-09T04:19:19.810Z,98220.53
2022-12-09T04:24:23.317Z,98229.50
2022-12-09T04:29:26.986Z,98225.50
2022-12-09T04:34:30.420Z,98239.16
2022-12-09T04:39:34.343Z,98242.66
2022-12-09T04:44:38.610Z,98250.41
2022-12-09T04:49:42.793Z,98250.63
2022-12-09T04:54:46.881Z,98246.88
2022-12-09T04:59:51.114Z,98256.81
2022-12-09T05:04:54.962Z,98260.25
2022-12-09T05:09:59.478Z,98272.69
2022-12-09T05:15:03.348Z,98282.91
2022-12-09T05:20:08.348Z,98300.97
2022-12-09T05:25:12.139Z,98300.47
2022-12-09T05:30:16.463Z,98307.38
2022-12-09T05:35:19.870Z,98314.88
2022-12-09T05:40:23.633Z,98305.31
2022-12-09T05:45:27.477Z,98312.47
2022-12-09T05:50:31.145Z,98317.41
2022-12-09T05:55:35.020Z,98321.94
2022-12-09T06:00:38.718Z,98314.59
2022-12-09T06:05:43.309Z,98313.44
2022-12-09T06:10:47.367Z,98314.41
2022-12-09T06:15:51.237Z,98317.56
2022-12-09T06:20:54.703Z,98322.47
2022-12-09T06:25:58.343Z,98327.44
2022-12-09T06:31:02.808Z,98330.50
2022-12-09T06:36:07.907Z,98334.50
2022-12-09T06:41:14.264Z,98337.75
2022-12-09T06:46:21.404Z,98333.75
2022-12-09T06:51:26.102Z,98344.41
2022-12-09T06:56:29.642Z,98350.88
2022-12-09T07:01:33.200Z,98348.19
2022-12-09T07:06:44.406Z,98352.63
2022-12-09T07:11:48.891Z,98347.84
2022-12-09T07:16:52.958Z,98344.78
2022-12-09T07:21:57.150Z,98342.50
2022-12-09T07:27:06.159Z,98336.03
2022-12-09T07:32:12.344Z,98327.31
2022-12-09T07:37:16.365Z,98333.47
2022-12-09T07:42:19.805Z,98330.78
2022-12-09T07:47:30.252Z,98340.84
2022-12-09T07:52:34.451Z,98333.09
2022-12-09T07:57:38.839Z,98324.88
2022-12-09T08:02:44.084Z,98331.19
2022-12-09T08:07:48.456Z,98331.28
2022-12-09T08:12:53.547Z,98331.94
2022-12-09T08:18:00.279Z,98313.13
2022-12-09T08:23:05.651Z,98304.91
2022-12-09T08:28:09.489Z,98299.69
2022-12-09T08:33:13.040Z,98289.06
2022-12-09T08:38:16.793Z,98279.94
2022-12-09T08:43:21.440Z,98273.56
2022-12-09T08:48:25.467Z,98270.41
2022-12-09T08:53:29.148Z,98263.47
2022-12-09T08:58:34.326Z,98250.97
2022-12-09T09:03:38.315Z,98244.56
2022-12-09T09:08:42.339Z,98234.09
2022-12-09T09:13:48.825Z,98244.19
2022-12-09T09:18:54.238Z,98238.88
2022-12-09T09:23:57.972Z,98228.91
2022-12-09T09:29:01.549Z,98232.19
2022-12-09T09:34:05.702Z,98228.66
2022-12-09T09:39:09.822Z,98221.66
2022-12-09T09:44:36.072Z,98210.81
2022-12-09T09:49:56.326Z,98204.50
2022-12-09T09:55:06.883Z,98197.41
2022-12-09T10:00:25.022Z,98195.00
2022-12-09T10:05:36.123Z,98187.03
2022-12-09T10:10:49.428Z,98186.31
2022-12-09T10:16:14.405Z,98182.53
2022-12-09T10:21:20.892Z,98174.44
2022-12-09T10:26:29.201Z,98172.88
2022-12-09T10:31:34.434Z,98162.09
2022-12-09T10:36:39.600Z,98152.91
2022-12-09T10:41:50.113Z,98147.53
2022-12-09T10:47:05.129Z,98142.38
2022-12-09T10:52:09.317Z,98132.72
2022-12-09T10:57:13.013Z,98122.16
2022-12-09T11:02:22.351Z,98125.41
2022-12-09T11:07:28.923Z,98125.72
2022-12-09T11:12:40.622Z,98117.34
2022-12-09T11:17:57.674Z,98120.06
2022-12-09T11:23:05.270Z,98108.16
2022-12-09T11:28:18.197Z,98113.88
2022-12-09T11:33:29.788Z,98104.09
2022-12-09T11:38:48.567Z,98100.34
2022-12-09T11:43:57.114Z,98106.00
2022-12-09T11:49:18.674Z,98108.69
2022-12-09T11:54:32.466Z,98117.63
2022-12-09T11:59:45.508Z,98115.50
2022-12-09T12:05:03.444Z,98108.75
2022-12-09T12:10:18.055Z,98111.47
2022-12-09T12:15:32.650Z,98117.44
2022-12-09T12:20:55.249Z,98121.22
2022-12-09T12:26:10.967Z,98125.75
2022-12-09T12:31:38.986Z,98120.34
2022-12-09T12:36:53.166Z,98123.56
2022-12-09T12:42:22.720Z,98132.19
2022-12-09T12:47:28.835Z,98124.03
2022-12-09T12:52:57.449Z,98125.28
2022-12-09T12:58:31.183Z,98122.22
2022-12-09T13:03:48.951Z,98120.44
2022-12-09T13:09:03.401Z,98129.06
2022-12-09T13:14:16.817Z,98132.44
2022-12-09T13:19:44.361Z,98139.66
2022-12-09T13:25:14.148Z,98139.59
2022-12-09T13:30:27.223Z,98135.44
2022-12-09T13:35:34.026Z,98140.56
2022-12-09T13:40:38.807Z,98132.31
2022-12-09T13:45:44.889Z,98131.91
2022-12-09T13:50:51.078Z,98129.63
2022-12-09T13:56:08.105Z,98134.91
2022-12-09T14:01:12.250Z,98135.53
2022-12-09T14:06:29.926Z,98129.16
2022-12-09T14:11:43.763Z,98134.63
2022-12-09T14:16:47.331Z,98128.81
2022-12-09T14:22:19.080Z,98131.59
2022-12-09T14:27:31.711Z,98134.69
2022-12-09T14:32:36.352Z,98136.38
2022-12-09T14:38:02.901Z,98140.81
2022-12-09T14:43:50.141Z,98136.84
2022-12-09T14:48:59.111Z,98144.25
2022-12-09T14:54:13.293Z,98153.31
2022-12-09T14:59:23.830Z,98149.69
2022-12-09T15:04:42.059Z,98153.34
2022-12-09T15:09:59.470Z,98154.63
2022-12-09T15:15:38.100Z,98151.81
2022-12-09T15:20:42.489Z,98158.53
2022-12-09T15:25:53.296Z,98159.34
2022-12-09T15:31:00.650Z,98166.38
2022-12-09T15:36:14.715Z,98163.66
2022-12-09T15:41:20.023Z,98176.78
2022-12-09T15:46:26.744Z,98183.25
2022-12-09T15:51:31.017Z,98179.97
2022-12-09T15:56:44.153Z,98190.75
2022-12-09T16:01:51.003Z,98188.53
2022-12-09T16:06:54.945Z,98180.34
2022-12-09T16:11:58.214Z,98191.72
2022-12-09T16:17:04.071Z,98186.88
2022-12-09T16:22:11.713Z,98193.91
2022-12-09T16:27:20.437Z,98188.19
2022-12-09T16:32:30.693Z,98204.94
2022-12-09T16:37:33.979Z,98199.78
2022-12-09T16:42:40.870Z,98204.81
2022-12-09T16:47:45.456Z,98190.22
2022-12-09T16:52:49.339Z,98197.34
2022-12-09T16:57:54.314Z,98197.81
2022-12-09T17:03:06.678Z,98196.66
2022-12-09T17:08:10.245Z,98198.75
2022-12-09T17:13:13.916Z,98198.63
2022-12-09T17:18:17.319Z,98191.28
2022-12-09T17:23:20.855Z,98194.31
2022-12-09T17:28:29.765Z,98197.50
2022-12-09T17:33:33.736Z,98190.09
2022-12-09T17:38:38.736Z,98195.72
2022-12-09T17:43:43.416Z,98189.97
2022-12-09T17:48:46.790Z,98192.91
2022-12-09T17:53:50.335Z,98199.94
2022-12-09T17:59:05.533Z,98194.34
2022-12-09T18:04:09.676Z,98198.06
2022-12-09T18:09:16.264Z,98199.72
2022-12-09T18:14:20.041Z,98201.59
2022-12-09T18:19:23.508Z,98213.19
2022-12-09T18:24:28.630Z,98213.41
2022-12-09T18:29:32.273Z,98208.81
2022-12-09T18:34:35.685Z,98202.88
2022-12-09T18:39:39.082Z,98186.38
2022-12-09T18:44:42.845Z,98183.75
2022-12-09T18:49:46.625Z,98201.34
2022-12-09T18:54:50.338Z,98188.13
2022-12-09T18:59:54.840Z,98189.38
2022-12-09T19:04:58.230Z,98186.69
2022-12-09T19:10:01.695Z,98188.34
2022-12-09T19:15:07.929Z,98197.47
2022-12-09T19:20:11.581Z,98213.19
2022-12-09T19:25:14.964Z,98222.06
2022-12-09T19:30:18.507Z,98213.19
2022-12-09T19:35:22.226Z,98206.34
2022-12-09T19:40:25.729Z,98214.91
2022-12-09T19:45:29.116Z,98226.50
2022-12-09T19:50:32.542Z,98221.38
2022-12-09T19:55:36.187Z,98216.78
2022-12-09T20:00:41.556Z,98226.13
2022-12-09T20:05:53.747Z,98229.88
2022-12-09T20:10:57.153Z,98231.31
2022-12-09T20:16:08.846Z,98217.25
2022-12-09T20:21:13.610Z,98230.25
2022-12-09T20:26:26.141Z,98225.44
2022-12-09T20:31:31.659Z,98217.63
2022-12-09T20:36:36.578Z,98221.81
2022-12-09T20:41:41.213Z,98217.97
2022-12-09T20:46:50.945Z,98218.41
2022-12-09T20:51:54.620Z,98226.13
2022-12-09T20:56:58.203Z,98225.75
2022-12-09T21:02:01.755Z,98223.72
2022-12-09T21:07:06.140Z,98213.19
2022-12-09T21:12:10.885Z,98211.31
2022-12-09T21:17:14.263Z,98200.19
2022-12-09T21:22:17.757Z,98202.44
2022-12-09T21:27:21.064Z,98205.13
2022-12-09T21:32:25.313Z,98204.44
2022-12-09T21:37:29.619Z,98193.22
2022-12-09T21:42:34.513Z,98186.22
2022-12-09T21:47:37.895Z,98180.31
2022-12-09T21:52:41.509Z,98179.50
2022-12-09T21:57:45.341Z,98177.25
2022-12-09T22:02:52.282Z,98182.50
2022-12-09T22:07:56.632Z,98189.75
2022-12-09T22:12:59.952Z,98175.72
2022-12-09T22:18:03.358Z,98171.03
2022-12-09T22:23:06.868Z,98164.47
2022-12-09T22:28:10.450Z,98175.94
2022-12-09T22:33:13.816Z,98164.47
2022-12-09T22:38:17.273Z,98170.75
2022-12-09T22:43:20.612Z,98178.09
2022-12-09T22:48:24.474Z,98183.34
2022-12-09T22:53:27.776Z,98177.25
2022-12-09T22:58:31.641Z,98179.31
2022-12-09T23:03:35.225Z,98176.84
2022-12-09T23:08:40.285Z,98176.03
2022-12-09T23:13:44.536Z,98166.78
2022-12-09T23:18:48.424Z,98169.59
2022-12-09T23:23:56.812Z,98164.22
2022-12-09T23:29:01.788Z,98159.66
2022-12-09T23:34:07.526Z,98154.28
2022-12-09T23:39:13.730Z,98149.72
2022-12-09T23:44:19.094Z,98154.28
2022-12-09T23:49:22.522Z,98152.91
2022-12-09T23:54:25.839Z,98154.16
2022-12-09T23:59:29.107Z,98150.88
